createdAt,value
2018-01-16T00:00:16.113Z,0.87
2018-01-16T00:02:42.583Z,0.93
2018-01-16T00:05:09.753Z,1.20
2018-01-16T00:07:36.182Z,1.00
2018-01-16T00:10:02.762Z,0.93
2018-01-16T00:12:29.197Z,0.90
2018-01-16T00:14:55.626Z,0.90
2018-01-16T00:17:22.283Z,0.97
2018-01-16T00:19:48.773Z,0.70
2018-01-16T00:22:27.704Z,1.03
2018-01-16T00:24:54.212Z,1.10
2018-01-16T00:27:20.654Z,1.30
2018-01-16T00:29:47.074Z,1.10
2018-01-16T00:32:13.501Z,0.83
2018-01-16T00:34:39.885Z,1.00
2018-01-16T00:37:06.383Z,1.03
2018-01-16T00:39:32.859Z,1.17
2018-01-16T00:41:59.287Z,1.10
2018-01-16T00:44:25.725Z,1.20
2018-01-16T00:46:52.180Z,0.90
2018-01-16T00:49:18.567Z,0.80
2018-01-16T00:51:44.994Z,1.20
2018-01-16T00:54:11.382Z,1.00
2018-01-16T00:56:38.622Z,1.20
2018-01-16T00:59:05.040Z,1.07
2018-01-16T01:01:31.459Z,0.93
2018-01-16T01:03:57.865Z,1.00
2018-01-16T01:06:24.293Z,0.97
2018-01-16T01:08:50.699Z,1.00
2018-01-16T01:11:17.835Z,1.00
2018-01-16T01:13:44.304Z,1.00
2018-01-16T01:16:11.486Z,1.20
2018-01-16T01:18:38.059Z,0.83
2018-01-16T01:21:04.484Z,1.00
2018-01-16T01:23:32.409Z,0.80
2018-01-16T01:25:58.846Z,1.13
2018-01-16T01:28:25.424Z,0.90
2018-01-16T01:30:51.828Z,0.80
2018-01-16T01:33:18.235Z,1.00
2018-01-16T01:35:45.380Z,0.80
2018-01-16T01:38:11.773Z,1.00
2018-01-16T01:40:38.207Z,0.80
2018-01-16T01:43:05.396Z,1.10
2018-01-16T01:45:31.807Z,0.90
2018-01-16T01:47:58.232Z,1.00
2018-01-16T01:50:24.810Z,1.00
2018-01-16T01:52:51.228Z,1.13
2018-01-16T01:55:17.653Z,1.23
2018-01-16T01:57:44.860Z,1.00
2018-01-16T02:00:11.276Z,0.80
2018-01-16T02:02:37.681Z,0.87
2018-01-16T02:05:04.191Z,1.30
2018-01-16T02:07:30.643Z,1.37
2018-01-16T02:09:57.097Z,1.30
2018-01-16T02:12:23.566Z,1.27
2018-01-16T02:14:50.723Z,1.00
2018-01-16T02:17:17.114Z,1.13
2018-01-16T02:19:43.526Z,1.27
2018-01-16T02:22:09.936Z,1.57
2018-01-16T02:24:37.065Z,1.07
2018-01-16T02:27:03.493Z,1.20
2018-01-16T02:29:29.847Z,1.40
2018-01-16T02:31:57.051Z,1.13
2018-01-16T02:34:23.456Z,1.00
2018-01-16T02:36:49.923Z,0.90
2018-01-16T02:39:16.427Z,1.13
2018-01-16T02:41:42.859Z,1.00
2018-01-16T02:44:09.250Z,0.97
2018-01-16T02:46:35.876Z,1.10
2018-01-16T02:49:02.298Z,1.17
2018-01-16T02:51:28.734Z,0.97
2018-01-16T02:53:55.138Z,1.30
2018-01-16T02:56:21.567Z,1.00
2018-01-16T02:58:47.983Z,1.40
2018-01-16T03:01:14.389Z,1.10
2018-01-16T03:03:41.566Z,0.90
2018-01-16T03:06:08.679Z,1.13
2018-01-16T03:08:35.208Z,1.27
2018-01-16T03:11:01.712Z,1.10
2018-01-16T03:13:28.141Z,1.00
2018-01-16T03:15:54.560Z,2.27
2018-01-16T03:18:21.022Z,1.33
2018-01-16T03:20:47.387Z,1.00
2018-01-16T03:23:14.521Z,0.93
2018-01-16T03:25:41.335Z,1.30
2018-01-16T03:28:07.897Z,1.10
2018-01-16T03:30:35.116Z,1.70
2018-01-16T03:33:01.535Z,1.67
2018-01-16T03:35:27.927Z,1.30
2018-01-16T03:37:55.165Z,1.13
2018-01-16T03:40:21.594Z,1.47
2018-01-16T03:42:47.976Z,1.83
2018-01-16T03:45:14.348Z,1.30
2018-01-16T03:47:40.796Z,1.00
2018-01-16T03:50:08.019Z,1.10
2018-01-16T03:52:34.389Z,0.90
2018-01-16T03:55:01.545Z,1.10
2018-01-16T03:57:28.743Z,1.00
2018-01-16T03:59:55.143Z,1.00
2018-01-16T04:02:21.555Z,1.13
2018-01-16T04:04:48.692Z,1.23
2018-01-16T04:07:15.222Z,1.10
2018-01-16T04:09:41.872Z,2.27
2018-01-16T04:12:08.298Z,1.57
2018-01-16T04:14:34.687Z,1.67
2018-01-16T04:17:01.175Z,1.33
2018-01-16T04:19:28.558Z,1.37
2018-01-16T04:21:54.998Z,1.60
2018-01-16T04:24:21.411Z,1.10
2018-01-16T04:26:47.822Z,1.30
2018-01-16T04:29:14.198Z,1.10
2018-01-16T04:31:40.757Z,1.40
2018-01-16T04:34:07.154Z,1.80
2018-01-16T04:36:33.550Z,1.20
2018-01-16T04:38:59.973Z,1.10
2018-01-16T04:41:26.362Z,1.20
2018-01-16T04:43:52.754Z,1.20
2018-01-16T04:46:19.938Z,1.50
2018-01-16T04:48:46.345Z,1.37
2018-01-16T04:51:12.763Z,1.50
2018-01-16T04:53:39.218Z,1.80
2018-01-16T04:56:05.614Z,1.70
2018-01-16T04:58:31.994Z,1.20
2018-01-16T05:00:58.484Z,1.50
2018-01-16T05:03:24.877Z,1.63
2018-01-16T05:05:51.304Z,1.60
2018-01-16T05:08:17.741Z,1.47
2018-01-16T05:10:45.207Z,1.27
2018-01-16T05:13:12.505Z,1.50
2018-01-16T05:15:39.669Z,1.40
2018-01-16T05:18:06.815Z,1.77
2018-01-16T05:20:33.180Z,1.70
2018-01-16T05:22:59.743Z,1.90
2018-01-16T05:25:27.012Z,1.10
2018-01-16T05:27:54.171Z,1.60
2018-01-16T05:30:20.803Z,1.40
2018-01-16T05:32:47.250Z,1.20
2018-01-16T05:35:14.387Z,2.10
2018-01-16T05:37:40.830Z,1.30
2018-01-16T05:40:08.008Z,1.50
2018-01-16T05:42:35.150Z,1.73
2018-01-16T05:45:01.646Z,1.70
2018-01-16T05:47:28.080Z,1.70
2018-01-16T05:49:54.513Z,1.47
2018-01-16T05:52:20.961Z,1.50
2018-01-16T05:54:47.480Z,1.37
2018-01-16T05:57:14.015Z,1.60
2018-01-16T05:59:40.550Z,1.60
2018-01-16T06:02:07.706Z,1.63
2018-01-16T06:04:34.102Z,1.00
2018-01-16T06:07:00.504Z,1.30
2018-01-16T06:09:26.964Z,1.40
2018-01-16T06:11:53.370Z,1.50
2018-01-16T06:14:19.970Z,1.23
2018-01-16T06:16:46.377Z,1.27
2018-01-16T06:19:12.791Z,0.90
2018-01-16T06:21:39.374Z,1.00
2018-01-16T06:24:05.812Z,0.80
2018-01-16T06:26:32.986Z,1.00
2018-01-16T06:28:59.587Z,0.90
2018-01-16T06:31:26.823Z,1.10
2018-01-16T06:33:53.254Z,0.80
2018-01-16T06:36:19.678Z,1.00
2018-01-16T06:38:46.088Z,0.93
2018-01-16T06:41:12.482Z,1.20
2018-01-16T06:43:39.669Z,1.40
2018-01-16T06:46:06.069Z,1.00
2018-01-16T06:48:32.585Z,1.00
2018-01-16T06:50:59.017Z,1.13
2018-01-16T06:53:26.269Z,1.30
2018-01-16T06:55:52.914Z,1.30
2018-01-16T06:58:19.708Z,1.50
2018-01-16T07:00:46.329Z,1.50
2018-01-16T07:03:13.064Z,1.23
2018-01-16T07:05:39.644Z,1.40
2018-01-16T07:08:06.284Z,1.90
2018-01-16T07:10:32.768Z,1.53
2018-01-16T07:12:59.227Z,1.90
2018-01-16T07:15:25.645Z,1.97
2018-01-16T07:17:52.095Z,1.93
2018-01-16T07:20:18.579Z,1.93
2018-01-16T07:22:45.728Z,2.00
2018-01-16T07:25:12.908Z,1.70
2018-01-16T07:27:39.387Z,1.73
2018-01-16T07:30:05.809Z,2.30
2018-01-16T07:32:32.266Z,1.70
2018-01-16T07:34:58.708Z,1.90
2018-01-16T07:37:25.211Z,1.77
2018-01-16T07:39:51.593Z,1.70
2018-01-16T07:42:18.002Z,1.70
2018-01-16T07:44:44.440Z,1.77
2018-01-16T07:47:11.885Z,1.60
2018-01-16T07:49:39.109Z,1.63
2018-01-16T07:52:05.570Z,1.00
2018-01-16T07:54:32.812Z,1.10
2018-01-16T07:56:59.468Z,1.47
2018-01-16T07:59:25.971Z,0.97
2018-01-16T08:01:52.410Z,1.30
2018-01-16T08:04:18.883Z,1.30
2018-01-16T08:06:45.356Z,1.67
2018-01-16T08:09:11.758Z,1.83
2018-01-16T08:11:38.934Z,2.03
2018-01-16T08:14:05.326Z,1.40
2018-01-16T08:16:32.491Z,1.50
2018-01-16T08:18:58.940Z,1.07
2018-01-16T08:21:25.630Z,1.10
2018-01-16T08:23:52.124Z,0.90
2018-01-16T08:26:18.583Z,1.10
2018-01-16T08:28:45.016Z,1.10
2018-01-16T08:31:11.431Z,1.10
2018-01-16T08:33:37.907Z,1.67
2018-01-16T08:36:04.434Z,1.00
2018-01-16T08:38:30.835Z,1.10
2018-01-16T08:40:57.265Z,0.90
2018-01-16T08:43:23.710Z,0.97
2018-01-16T08:45:50.114Z,1.40
2018-01-16T08:48:16.594Z,0.90
2018-01-16T08:50:42.978Z,0.90
2018-01-16T08:53:09.384Z,0.90
2018-01-16T08:55:35.843Z,0.90
2018-01-16T08:58:02.251Z,0.80
2018-01-16T09:00:28.623Z,0.90
2018-01-16T09:02:55.199Z,0.97
2018-01-16T09:05:21.629Z,0.83
2018-01-16T09:07:48.070Z,1.10
2018-01-16T09:10:15.513Z,1.23
2018-01-16T09:12:42.710Z,1.07
2018-01-16T09:15:09.234Z,1.30
2018-01-16T09:17:35.714Z,0.87
2018-01-16T09:20:02.198Z,1.13
2018-01-16T09:22:28.643Z,1.10
2018-01-16T09:24:55.088Z,1.20
2018-01-16T09:27:21.493Z,0.90
2018-01-16T09:29:48.255Z,1.00
2018-01-16T09:32:14.765Z,1.00
2018-01-16T09:34:41.935Z,1.10
2018-01-16T09:37:09.063Z,1.10
2018-01-16T09:39:35.606Z,1.00
2018-01-16T09:42:02.771Z,1.10
2018-01-16T09:44:29.189Z,1.00
2018-01-16T09:46:55.660Z,0.93
2018-01-16T09:49:22.226Z,1.30
2018-01-16T09:51:49.390Z,1.10
2018-01-16T09:54:16.574Z,0.90
2018-01-16T09:56:43.084Z,0.90
2018-01-16T09:59:09.551Z,1.03
2018-01-16T10:01:36.013Z,1.00
2018-01-16T10:04:02.926Z,0.90
2018-01-16T10:06:29.348Z,1.00
2018-01-16T10:08:55.844Z,0.80
2018-01-16T10:11:22.314Z,1.10
2018-01-16T10:13:48.760Z,1.10
2018-01-16T10:16:15.346Z,1.13
2018-01-16T10:18:41.864Z,0.83
2018-01-16T10:21:08.308Z,1.00
2018-01-16T10:23:34.726Z,1.20
2018-01-16T10:26:01.154Z,0.90
2018-01-16T10:28:27.593Z,0.90
2018-01-16T10:30:54.071Z,1.00
2018-01-16T10:33:20.560Z,0.90
2018-01-16T10:35:47.191Z,0.90
2018-01-16T10:38:13.957Z,0.97
2018-01-16T10:40:41.208Z,1.00
2018-01-16T10:43:07.678Z,0.87
2018-01-16T10:45:34.172Z,0.90
2018-01-16T10:48:00.836Z,0.90
2018-01-16T10:50:28.131Z,1.10
2018-01-16T10:52:54.600Z,1.07
2018-01-16T10:55:21.029Z,0.80
2018-01-16T10:57:47.419Z,1.03
2018-01-16T11:00:13.977Z,0.90
2018-01-16T11:02:40.781Z,0.93
2018-01-16T11:05:07.225Z,1.13
2018-01-16T11:07:34.032Z,0.80
2018-01-16T11:10:00.487Z,0.97
2018-01-16T11:12:27.026Z,1.40
2018-01-16T11:14:53.558Z,0.90
2018-01-16T11:17:19.981Z,0.97
2018-01-16T11:19:46.515Z,1.10
2018-01-16T11:22:13.007Z,1.40
2018-01-16T11:24:39.459Z,1.20
2018-01-16T11:27:06.066Z,0.90
2018-01-16T11:29:32.507Z,1.07
2018-01-16T11:31:59.263Z,0.90
2018-01-16T11:34:25.692Z,0.80
2018-01-16T11:36:52.406Z,0.90
2018-01-16T11:39:18.924Z,1.30
2018-01-16T11:41:45.474Z,1.10
2018-01-16T11:44:12.069Z,1.20
2018-01-16T11:46:38.505Z,0.90
2018-01-16T11:49:05.933Z,1.20
2018-01-16T11:51:32.567Z,1.20
2018-01-16T11:53:59.025Z,1.30
2018-01-16T11:56:25.450Z,0.97
2018-01-16T11:58:52.630Z,0.97
2018-01-16T12:01:19.070Z,0.90
2018-01-16T12:03:45.482Z,0.90
2018-01-16T12:06:12.196Z,1.07
2018-01-16T12:08:39.546Z,0.97
2018-01-16T12:11:07.050Z,0.97
2018-01-16T12:13:33.495Z,1.17
2018-01-16T12:15:59.903Z,1.10
2018-01-16T12:18:26.451Z,0.93
2018-01-16T12:20:52.875Z,1.10
2018-01-16T12:23:19.370Z,0.80
2018-01-16T12:25:45.985Z,1.20
2018-01-16T12:28:12.997Z,1.20
2018-01-16T12:30:39.434Z,0.90
2018-01-16T12:33:05.882Z,1.07
2018-01-16T12:35:32.333Z,1.00
2018-01-16T12:37:58.795Z,0.80
2018-01-16T12:40:25.423Z,0.90
2018-01-16T12:42:51.887Z,1.37
2018-01-16T12:45:18.267Z,0.90
2018-01-16T12:47:44.821Z,1.00
2018-01-16T12:50:12.061Z,1.10
2018-01-16T12:52:38.667Z,0.83
2018-01-16T12:55:05.193Z,1.10
2018-01-16T12:57:31.680Z,0.80
2018-01-16T12:59:58.114Z,1.00
2018-01-16T13:02:24.556Z,1.10
2018-01-16T13:04:51.785Z,0.93
2018-01-16T13:07:18.204Z,1.10
2018-01-16T13:09:44.629Z,1.10
2018-01-16T13:12:11.176Z,0.90
2018-01-16T13:14:37.576Z,0.97
2018-01-16T13:17:03.971Z,0.90
2018-01-16T13:19:31.313Z,1.20
2018-01-16T13:21:57.830Z,1.20
2018-01-16T13:24:24.365Z,1.10
2018-01-16T13:26:51.008Z,1.00
2018-01-16T13:29:18.379Z,1.20
2018-01-16T13:31:45.026Z,1.20
2018-01-16T13:34:12.236Z,0.97
2018-01-16T13:36:38.718Z,0.83
2018-01-16T13:39:05.444Z,1.07
2018-01-16T13:41:32.713Z,1.27
2018-01-16T13:43:59.877Z,1.00
2018-01-16T13:46:26.333Z,1.20
2018-01-16T13:48:52.733Z,1.10
2018-01-16T13:51:20.183Z,1.60
2018-01-16T13:53:46.655Z,1.50
2018-01-16T13:56:13.171Z,1.27
2018-01-16T13:58:39.767Z,1.10
2018-01-16T14:01:06.962Z,1.13
2018-01-16T14:03:33.405Z,1.30
2018-01-16T14:05:59.894Z,1.03
2018-01-16T14:08:26.284Z,1.10
2018-01-16T14:10:52.736Z,1.57
2018-01-16T14:13:19.254Z,1.03
2018-01-16T14:15:45.659Z,1.00
2018-01-16T14:18:12.355Z,1.20
2018-01-16T14:23:11.918Z,1.10
2018-01-16T14:25:38.515Z,1.60
2018-01-16T14:28:04.926Z,1.40
2018-01-16T14:30:31.377Z,1.70
2018-01-16T14:32:58.119Z,1.20
2018-01-16T14:35:24.757Z,1.03
2018-01-16T14:37:51.286Z,1.00
2018-01-16T14:40:17.912Z,1.67
2018-01-16T14:42:45.350Z,1.77
2018-01-16T14:45:11.798Z,1.20
2018-01-16T14:47:38.684Z,1.50
2018-01-16T14:50:05.144Z,1.37
2018-01-16T14:52:31.550Z,1.63
2018-01-16T14:54:58.165Z,1.03
2018-01-16T14:57:24.616Z,1.40
2018-01-16T14:59:51.802Z,1.30
2018-01-16T15:02:18.327Z,1.60
2018-01-16T15:04:44.918Z,1.30
2018-01-16T15:07:11.388Z,1.37
2018-01-16T15:09:37.994Z,1.20
2018-01-16T15:12:04.424Z,1.63
2018-01-16T15:14:31.091Z,1.37
2018-01-16T15:16:57.588Z,1.00
2018-01-16T15:19:23.999Z,1.30
2018-01-16T15:21:50.456Z,1.37
2018-01-16T15:24:16.919Z,2.80
2018-01-16T15:26:43.315Z,1.60
2018-01-16T15:29:10.579Z,1.53
2018-01-16T15:31:37.034Z,1.43
2018-01-16T15:34:03.488Z,1.47
2018-01-16T15:36:30.080Z,1.40
2018-01-16T15:38:56.538Z,1.20
2018-01-16T15:41:23.020Z,1.80
2018-01-16T15:43:49.560Z,1.70
2018-01-16T15:46:16.118Z,1.50
2018-01-16T15:48:42.707Z,1.73
2018-01-16T15:51:09.973Z,1.90
2018-01-16T15:53:36.428Z,1.40
2018-01-16T15:56:02.889Z,1.37
2018-01-16T15:58:29.347Z,1.50
2018-01-16T16:00:55.844Z,1.57
2018-01-16T16:03:22.274Z,1.80
2018-01-16T16:05:48.694Z,1.80
2018-01-16T16:08:15.171Z,1.43
2018-01-16T16:10:41.685Z,2.10
2018-01-16T16:13:08.219Z,2.00
2018-01-16T16:15:35.419Z,1.50
2018-01-16T16:18:02.001Z,2.40
2018-01-16T16:20:29.351Z,2.10
2018-01-16T16:22:55.922Z,1.90
2018-01-16T16:25:22.404Z,1.47
2018-01-16T16:27:49.040Z,1.77
2018-01-16T16:30:15.502Z,2.20
2018-01-16T16:32:42.130Z,1.50
2018-01-16T16:35:08.679Z,1.80
2018-01-16T16:37:35.220Z,1.60
2018-01-16T16:40:02.674Z,2.07
2018-01-16T16:42:29.115Z,1.20
2018-01-16T16:44:55.829Z,1.57
2018-01-16T16:47:23.013Z,1.40
2018-01-16T16:49:49.487Z,1.37
2018-01-16T16:52:16.257Z,1.47
2018-01-16T16:54:43.619Z,1.50
2018-01-16T16:57:10.776Z,1.60
2018-01-16T16:59:37.946Z,1.50
2018-01-16T17:02:04.373Z,1.37
2018-01-16T17:04:30.886Z,1.73
2018-01-16T17:06:57.385Z,1.70
2018-01-16T17:09:23.814Z,1.57
2018-01-16T17:11:50.288Z,1.83
2018-01-16T17:14:16.914Z,2.00
2018-01-16T17:16:44.094Z,1.77
2018-01-16T17:19:11.319Z,1.93
2018-01-16T17:21:37.779Z,2.20
2018-01-16T17:24:04.998Z,1.70
2018-01-16T17:26:31.391Z,2.10
2018-01-16T17:28:57.830Z,1.97
2018-01-16T17:31:24.240Z,2.40
2018-01-16T17:33:50.630Z,1.93
2018-01-16T17:36:17.126Z,2.20
2018-01-16T17:38:43.580Z,2.40
2018-01-16T17:41:10.015Z,2.27
2018-01-16T17:43:36.539Z,1.90
2018-01-16T17:46:03.012Z,2.47
2018-01-16T17:48:29.620Z,2.70
2018-01-16T17:50:56.074Z,2.23
2018-01-16T17:53:22.523Z,2.60
2018-01-16T17:55:50.193Z,3.37
2018-01-16T17:58:16.820Z,2.13
2018-01-16T18:00:43.290Z,2.30
2018-01-16T18:03:10.502Z,2.47
2018-01-16T18:05:36.977Z,2.53
2018-01-16T18:08:03.450Z,1.90
2018-01-16T18:10:30.016Z,2.20
2018-01-16T18:12:56.626Z,2.50
2018-01-16T18:15:23.781Z,2.63
2018-01-16T18:17:50.215Z,1.80
2018-01-16T18:20:17.565Z,2.23
2018-01-16T18:22:43.998Z,2.23
2018-01-16T18:25:10.531Z,2.10
2018-01-16T18:27:37.153Z,3.63
2018-01-16T18:30:03.653Z,2.63
2018-01-16T18:32:30.054Z,2.70
2018-01-16T18:34:57.260Z,2.97
2018-01-16T18:37:23.661Z,3.13
2018-01-16T18:39:50.098Z,2.77
2018-01-16T18:42:16.707Z,2.40
2018-01-16T18:44:44.012Z,2.47
2018-01-16T18:47:11.376Z,2.50
2018-01-16T18:49:37.868Z,2.60
2018-01-16T18:52:04.287Z,2.43
2018-01-16T18:54:30.708Z,2.20
2018-01-16T18:56:57.924Z,1.90
2018-01-16T18:59:24.332Z,1.80
2018-01-16T19:01:50.809Z,1.60
2018-01-16T19:04:17.350Z,1.63
2018-01-16T19:06:43.816Z,1.40
2018-01-16T19:09:10.398Z,2.00
2018-01-16T19:11:37.801Z,1.60
2018-01-16T19:14:04.409Z,1.87
2018-01-16T19:16:31.763Z,2.10
2018-01-16T19:18:58.273Z,1.57
2018-01-16T19:21:24.765Z,1.30
2018-01-16T19:23:51.677Z,1.60
2018-01-16T19:26:18.160Z,1.70
2018-01-16T19:28:44.594Z,1.37
2018-01-16T19:31:11.074Z,2.27
2018-01-16T19:33:38.312Z,2.30
2018-01-16T19:36:05.782Z,1.97
2018-01-16T19:38:32.369Z,1.63
2018-01-16T19:40:58.852Z,1.57
2018-01-16T19:43:25.738Z,1.80
2018-01-16T19:45:52.349Z,1.50
2018-01-16T19:48:18.910Z,1.60
2018-01-16T19:50:46.221Z,1.50
2018-01-16T19:53:12.861Z,2.00
2018-01-16T19:55:40.232Z,1.90
2018-01-16T19:58:06.841Z,1.80
2018-01-16T20:00:34.297Z,1.80
2018-01-16T20:03:00.766Z,1.73
2018-01-16T20:05:27.372Z,1.97
2018-01-16T20:07:53.869Z,1.87
2018-01-16T20:10:20.662Z,1.60
2018-01-16T20:12:47.207Z,1.67
2018-01-16T20:15:14.086Z,1.70
2018-01-16T20:17:40.650Z,1.27
2018-01-16T20:20:07.213Z,1.90
2018-01-16T20:22:34.429Z,1.57
2018-01-16T20:25:00.991Z,1.70
2018-01-16T20:27:28.427Z,1.47
2018-01-16T20:29:55.188Z,2.00
2018-01-16T20:32:21.827Z,1.77
2018-01-16T20:34:49.040Z,1.47
2018-01-16T20:37:15.480Z,1.33
2018-01-16T20:39:41.906Z,1.60
2018-01-16T20:42:08.341Z,1.77
2018-01-16T20:44:34.788Z,1.30
2018-01-16T20:47:02.004Z,1.30
2018-01-16T20:49:28.419Z,1.30
2018-01-16T20:51:54.889Z,1.20
2018-01-16T20:54:21.579Z,1.73
2018-01-16T20:56:48.751Z,1.47
2018-01-16T20:59:15.248Z,1.33
2018-01-16T21:01:42.540Z,1.50
2018-01-16T21:04:09.003Z,1.33
2018-01-16T21:06:35.528Z,2.13
2018-01-16T21:09:02.094Z,1.40
2018-01-16T21:11:28.747Z,1.50
2018-01-16T21:13:55.983Z,1.73
2018-01-16T21:16:24.084Z,2.07
2018-01-16T21:18:51.316Z,1.73
2018-01-16T21:21:17.869Z,1.90
2018-01-16T21:23:44.424Z,1.47
2018-01-16T21:26:10.863Z,1.90
2018-01-16T21:28:37.335Z,2.00
2018-01-16T21:31:03.771Z,2.10
2018-01-16T21:33:30.227Z,2.00
2018-01-16T21:35:56.642Z,1.90
2018-01-16T21:38:23.188Z,1.80
2018-01-16T21:40:49.619Z,2.23
2018-01-16T21:43:16.052Z,1.70
2018-01-16T21:45:42.529Z,1.73
2018-01-16T21:50:42.396Z,1.83
2018-01-16T21:53:08.904Z,1.70
2018-01-16T21:55:35.351Z,1.90
2018-01-16T21:58:01.818Z,1.90
2018-01-16T22:00:28.463Z,2.10
2018-01-16T22:02:54.977Z,1.37
2018-01-16T22:05:21.471Z,2.20
2018-01-16T22:07:48.062Z,1.63
2018-01-16T22:10:15.260Z,1.73
2018-01-16T22:12:41.851Z,1.97
2018-01-16T22:15:08.318Z,1.80
2018-01-16T22:17:34.925Z,1.50
2018-01-16T22:20:02.274Z,1.60
2018-01-16T22:22:29.502Z,1.50
2018-01-16T22:24:55.980Z,1.30
2018-01-16T22:27:22.805Z,1.10
2018-01-16T22:29:50.321Z,1.33
2018-01-16T22:32:16.897Z,1.60
2018-01-16T22:34:44.431Z,1.60
2018-01-16T22:37:10.989Z,1.87
2018-01-16T22:39:37.395Z,2.00
2018-01-16T22:42:03.850Z,1.50
2018-01-16T22:44:30.599Z,1.30
2018-01-16T22:46:57.798Z,1.23
2018-01-16T22:49:27.110Z,1.70
2018-01-16T22:51:53.673Z,1.60
2018-01-16T22:54:20.326Z,1.40
2018-01-16T22:56:46.786Z,1.47
2018-01-16T22:59:13.268Z,1.30
2018-01-16T23:01:39.804Z,1.20
2018-01-16T23:04:06.262Z,1.23
2018-01-16T23:06:33.814Z,1.70
2018-01-16T23:09:00.255Z,1.40
2018-01-16T23:11:26.761Z,1.60
2018-01-16T23:13:53.317Z,1.70
2018-01-16T23:16:19.806Z,1.67
2018-01-16T23:18:46.293Z,1.40
2018-01-16T23:21:12.791Z,1.80
2018-01-16T23:23:39.182Z,1.80
2018-01-16T23:26:05.688Z,1.13
2018-01-16T23:28:32.178Z,1.33
2018-01-16T23:30:58.583Z,1.10
2018-01-16T23:33:25.051Z,1.67
2018-01-16T23:35:51.490Z,1.10
2018-01-16T23:38:17.911Z,1.40
2018-01-16T23:40:44.329Z,3.23
2018-01-16T23:43:10.818Z,1.40
2018-01-16T23:45:37.232Z,1.20
2018-01-16T23:48:03.690Z,1.50
2018-01-16T23:50:30.132Z,1.33
2018-01-16T23:52:57.467Z,1.30
2018-01-16T23:55:23.909Z,1.30
2018-01-16T23:57:50.351Z,1.20
